Time;durP1;ratioP1;P1;durP2;ratioP2;P2;SDS_P1;SDS_P2;PMS_P1;PMS_P2;Temp;Humidity;BMP_temperature;BMP_pressure;BME280_temperature;BME280_humidity;BME280_pressure;Samples;Min_cycle;Max_cycle;Signal;HPM_P1;HPM_P2
2023/02/18 00:00:12;;;;;;;67.63;37.08;;;11.30;99.90;;;;;;5084342;28;20030;-78
2023/02/18 00:02:38;;;;;;;63.78;34.83;;;11.30;99.90;;;;;;5071282;28;20398;-78
2023/02/18 00:05:04;;;;;;;71.35;35.90;;;11.30;99.90;;;;;;5083998;28;20032;-79
2023/02/18 00:07:34;;;;;;;80.10;40.90;;;11.30;99.90;;;;;;5078476;28;20020;-78
2023/02/18 00:10:00;;;;;;;69.10;37.53;;;11.30;99.90;;;;;;5078548;28;20028;-77
2023/02/18 00:12:25;;;;;;;77.55;37.88;;;11.20;99.90;;;;;;5085758;28;20429;-78
2023/02/18 00:14:51;;;;;;;100.80;43.45;;;11.20;99.90;;;;;;5076313;28;20039;-77
2023/02/18 00:17:16;;;;;;;95.68;44.50;;;11.10;99.90;;;;;;5080188;28;20160;-78
2023/02/18 00:19:42;;;;;;;88.53;38.40;;;11.10;99.90;;;;;;5079192;28;20442;-78
2023/02/18 00:22:08;;;;;;;92.00;41.92;;;11.10;99.90;;;;;;5076134;28;20074;-77
2023/02/18 00:24:33;;;;;;;95.32;39.78;;;11.00;99.90;;;;;;5075800;28;20025;-77
2023/02/18 00:26:59;;;;;;;107.47;44.40;;;11.00;99.90;;;;;;5082912;28;20356;-78
2023/02/18 00:29:24;;;;;;;102.60;40.90;;;10.90;99.90;;;;;;5087969;28;20024;-78
2023/02/18 00:31:50;;;;;;;100.72;43.15;;;10.90;99.90;;;;;;5081310;28;21022;-78
2023/02/18 00:34:16;;;;;;;105.53;44.00;;;10.90;99.90;;;;;;5087529;28;20592;-77
2023/02/18 00:36:41;;;;;;;89.30;38.67;;;10.90;99.90;;;;;;5069586;28;20863;-76
2023/02/18 00:39:09;;;;;;;101.95;44.75;;;10.90;99.90;;;;;;5083600;28;20288;-76
2023/02/18 00:41:35;;;;;;;121.60;45.35;;;10.90;99.90;;;;;;5085033;28;20055;-77
2023/02/18 00:44:01;;;;;;;102.57;43.92;;;10.90;99.90;;;;;;5076276;28;20432;-78
2023/02/18 00:46:27;;;;;;;106.78;43.15;;;10.90;99.90;;;;;;5085081;28;20028;-78
2023/02/18 00:48:53;;;;;;;115.72;45.17;;;10.90;99.90;;;;;;5084825;28;20426;-77
2023/02/18 00:51:20;;;;;;;89.78;37.72;;;10.80;99.90;;;;;;5074983;28;20496;-77
2023/02/18 00:53:46;;;;;;;107.05;46.03;;;10.90;99.90;;;;;;5082283;28;20085;-77
2023/02/18 00:56:12;;;;;;;103.30;41.38;;;10.90;99.90;;;;;;5083421;28;20024;-78
2023/02/18 00:58:38;;;;;;;106.10;42.55;;;10.90;99.90;;;;;;5089639;28;20413;-76
2023/02/18 01:01:05;;;;;;;97.25;39.95;;;10.90;99.90;;;;;;5083518;28;20029;-78
2023/02/18 01:03:31;;;;;;;96.15;41.92;;;10.90;99.90;;;;;;5085604;28;20085;-76
2023/02/18 01:05:56;;;;;;;94.88;41.58;;;10.90;99.90;;;;;;5086212;28;20024;-78
2023/02/18 01:08:22;;;;;;;85.97;38.67;;;10.90;99.90;;;;;;5070701;28;20036;-77
2023/02/18 01:10:51;;;;;;;92.50;38.55;;;10.90;99.90;;;;;;5071754;28;20020;-77
2023/02/18 01:13:17;;;;;;;98.60;41.60;;;10.90;99.90;;;;;;5080447;28;20539;-77
2023/02/18 01:15:45;;;;;;;73.57;32.42;;;10.80;99.90;;;;;;5086109;28;20044;-77
2023/02/18 01:18:12;;;;;;;71.20;30.17;;;10.80;99.90;;;;;;5079450;28;20024;-77
2023/02/18 01:20:41;;;;;;;84.03;36.33;;;10.80;99.90;;;;;;5081924;28;20017;-78
2023/02/18 01:23:07;;;;;;;80.43;36.60;;;10.90;99.90;;;;;;5081303;28;20094;-79
2023/02/18 01:25:35;;;;;;;80.70;37.65;;;10.90;99.90;;;;;;5070070;28;20067;-76
2023/02/18 01:28:01;;;;;;;57.85;28.95;;;10.90;99.90;;;;;;5081938;28;20021;-77
2023/02/18 01:30:26;;;;;;;68.72;34.35;;;10.90;99.90;;;;;;5070162;28;20501;-78
2023/02/18 01:32:52;;;;;;;72.07;34.25;;;11.00;99.90;;;;;;5073639;28;20024;-77
2023/02/18 01:35:19;;;;;;;72.03;34.00;;;11.00;99.90;;;;;;5069725;28;20401;-77
2023/02/18 01:37:45;;;;;;;57.13;29.05;;;11.00;99.90;;;;;;5078920;28;20124;-77
2023/02/18 01:40:14;;;;;;;65.95;31.88;;;11.00;99.90;;;;;;5087976;28;20024;-79
2023/02/18 01:42:40;;;;;;;69.00;34.67;;;11.00;99.90;;;;;;5080884;28;20044;-78
2023/02/18 01:45:36;;;;;;;59.78;30.40;;;11.00;99.90;;;;;;5087407;28;20121;-78
2023/02/18 01:48:10;;;;;;;64.47;33.63;;;11.10;99.90;;;;;;5079228;28;20033;-77
2023/02/18 01:50:40;;;;;;;79.95;36.80;;;11.10;99.90;;;;;;5093857;28;20103;-77
2023/02/18 01:53:06;;;;;;;;;;;11.00;99.90;;;;;;5083473;28;20071;-78
2023/02/18 01:55:34;;;;;;;63.90;33.83;;;11.10;99.90;;;;;;5087959;28;20565;-78
2023/02/18 01:58:00;;;;;;;82.15;38.88;;;11.10;99.90;;;;;;5083160;28;20024;-77
2023/02/18 02:00:26;;;;;;;72.25;35.75;;;11.10;99.90;;;;;;5069372;28;20024;-78
2023/02/18 02:02:52;;;;;;;67.07;33.05;;;11.10;99.90;;;;;;5073288;28;20017;-76
2023/02/18 02:05:19;;;;;;;78.35;39.58;;;11.10;99.90;;;;;;5081998;28;20055;-77
2023/02/18 02:07:47;;;;;;;72.32;38.80;;;11.10;99.90;;;;;;5086767;28;20027;-77
2023/02/18 02:10:15;;;;;;;99.65;48.38;;;11.00;99.90;;;;;;5077911;28;20024;-78
2023/02/18 02:13:00;;;;;;;100.97;47.20;;;11.10;99.90;;;;;;5072255;28;20391;-77
2023/02/18 02:15:43;;;;;;;84.78;41.67;;;11.00;99.90;;;;;;5079371;28;20066;-78
2023/02/18 02:18:14;;;;;;;86.35;41.33;;;11.00;99.90;;;;;;5082604;28;20029;-77
2023/02/18 02:20:40;;;;;;;97.13;43.80;;;11.00;99.90;;;;;;5077559;28;20486;-77
2023/02/18 02:23:08;;;;;;;90.20;42.97;;;11.00;99.90;;;;;;5067807;28;20039;-77
2023/02/18 02:26:11;;;;;;;92.10;42.95;;;11.00;99.90;;;;;;5078657;28;20099;-78
2023/02/18 02:29:08;;;;;;;96.95;45.50;;;11.00;99.90;;;;;;5080346;28;20071;-76
2023/02/18 02:32:11;;;;;;;103.07;45.33;;;11.00;99.90;;;;;;5069058;28;20032;-77
2023/02/18 02:34:37;;;;;;;93.63;41.63;;;11.10;99.90;;;;;;5028551;28;20040;-77
2023/02/18 02:37:17;;;;;;;99.22;44.60;;;11.10;99.90;;;;;;5071092;28;20475;-76
2023/02/18 02:40:20;;;;;;;107.78;47.97;;;11.10;99.90;;;;;;5081512;28;20071;-76
2023/02/18 02:43:10;;;;;;;110.95;48.63;;;11.10;99.90;;;;;;5053069;28;20032;-76
2023/02/18 02:45:51;;;;;;;113.05;47.63;;;11.10;99.90;;;;;;5081017;28;20044;-75
2023/02/18 02:48:25;;;;;;;104.40;47.58;;;11.00;99.90;;;;;;5069208;28;20027;-75
2023/02/18 02:51:28;;;;;;;117.82;52.63;;;11.00;99.90;;;;;;5076648;28;20024;-76
2023/02/18 02:53:54;;;;;;;128.50;54.60;;;11.10;99.90;;;;;;5025330;28;20080;-77
2023/02/18 02:56:23;;;;;;;123.95;53.28;;;11.10;99.90;;;;;;5062965;28;20049;-76
2023/02/18 02:59:00;;;;;;;142.48;57.90;;;11.10;99.90;;;;;;5079794;28;20020;-76
2023/02/18 03:01:42;;;;;;;142.55;56.55;;;11.10;99.90;;;;;;5080312;28;20021;-75
2023/02/18 03:04:36;;;;;;;166.23;64.85;;;11.10;99.90;;;;;;5070301;28;20035;-77
2023/02/18 03:07:39;;;;;;;161.73;59.53;;;11.20;99.90;;;;;;5059443;28;20113;-75
2023/02/18 03:10:47;;;;;;;147.30;58.45;;;11.20;99.90;;;;;;5080240;28;20104;-76
2023/02/18 03:13:21;;;;;;;130.98;55.13;;;11.10;99.90;;;;;;5075160;28;20021;-76
2023/02/18 03:16:11;;;;;;;139.30;54.72;;;11.10;99.90;;;;;;5076771;28;20044;-77
2023/02/18 03:18:49;;;;;;;145.48;56.40;;;11.10;99.90;;;;;;5080059;28;20110;-77
2023/02/18 03:21:22;;;;;;;129.93;50.67;;;11.20;99.90;;;;;;5077108;28;20770;-76
2023/02/18 03:23:56;;;;;;;157.90;54.30;;;11.20;99.90;;;;;;5081733;28;20469;-77
2023/02/18 03:26:25;;;;;;;152.98;56.95;;;11.20;99.90;;;;;;5081801;28;20025;-76
2023/02/18 03:28:57;;;;;;;135.45;52.17;;;11.20;99.90;;;;;;5080558;28;20703;-76
2023/02/18 03:31:26;;;;;;;131.27;50.92;;;11.20;99.90;;;;;;5079511;28;20116;-76
2023/02/18 03:34:06;;;;;;;131.23;50.05;;;11.20;99.90;;;;;;5078768;28;20062;-76
2023/02/18 03:36:34;;;;;;;110.82;43.45;;;11.30;99.90;;;;;;5078510;28;20035;-77
2023/02/18 03:39:07;;;;;;;135.85;49.45;;;11.20;99.90;;;;;;5075664;28;20394;-77
2023/02/18 03:41:34;;;;;;;136.90;49.40;;;11.30;99.90;;;;;;5078486;28;20017;-76
2023/02/18 03:44:03;;;;;;;90.55;39.55;;;11.30;99.90;;;;;;5080649;28;20028;-76
2023/02/18 03:46:30;;;;;;;114.78;45.60;;;11.30;99.90;;;;;;5076205;28;20027;-76
2023/02/18 03:48:56;;;;;;;110.10;43.47;;;11.40;99.90;;;;;;5076793;28;20029;-76
2023/02/18 03:51:22;;;;;;;88.53;38.15;;;11.40;99.90;;;;;;5082572;28;20039;-77
2023/02/18 03:53:47;;;;;;;103.03;41.10;;;11.40;99.90;;;;;;5081427;28;20060;-76
2023/02/18 03:56:13;;;;;;;131.23;45.00;;;11.40;99.90;;;;;;5080657;28;20112;-75
2023/02/18 03:58:39;;;;;;;91.60;37.42;;;11.40;99.90;;;;;;5076910;28;20023;-76
2023/02/18 04:01:05;;;;;;;96.45;37.33;;;11.40;99.90;;;;;;5081885;28;20024;-75
2023/02/18 04:03:31;;;;;;;71.07;31.95;;;11.40;99.90;;;;;;5076220;28;20102;-76
2023/02/18 04:05:56;;;;;;;60.88;28.60;;;11.40;99.90;;;;;;5081662;28;20031;-75
2023/02/18 04:08:22;;;;;;;62.53;27.77;;;11.50;99.90;;;;;;5075767;28;20110;-76
2023/02/18 04:10:48;;;;;;;48.22;22.58;;;11.40;99.90;;;;;;5081415;28;20031;-75
2023/02/18 04:13:16;;;;;;;46.33;22.23;;;11.50;99.90;;;;;;5080888;28;20020;-75
2023/02/18 04:15:43;;;;;;;55.85;24.05;;;11.50;99.90;;;;;;5080088;28;20126;-75
2023/02/18 04:18:08;;;;;;;62.92;26.60;;;11.40;99.90;;;;;;5078128;28;20021;-75
2023/02/18 04:20:34;;;;;;;56.95;25.02;;;11.50;99.90;;;;;;5079666;28;20024;-76
2023/02/18 04:22:59;;;;;;;70.90;28.17;;;11.50;99.90;;;;;;5084719;28;20058;-75
2023/02/18 04:25:25;;;;;;;53.28;24.88;;;11.50;99.90;;;;;;5086321;28;20749;-75
2023/02/18 04:27:51;;;;;;;61.58;27.33;;;11.50;99.90;;;;;;5080103;28;20025;-76
2023/02/18 04:30:17;;;;;;;67.55;30.85;;;11.50;99.90;;;;;;5081418;28;20131;-76
2023/02/18 04:32:42;;;;;;;51.00;25.70;;;11.60;99.90;;;;;;5081804;28;20027;-75
2023/02/18 04:35:08;;;;;;;53.08;24.48;;;11.50;99.90;;;;;;5078758;28;20060;-76
2023/02/18 04:37:33;;;;;;;59.47;26.00;;;11.50;99.90;;;;;;5080616;28;20056;-76
2023/02/18 04:39:59;;;;;;;48.17;22.77;;;11.50;99.90;;;;;;5081765;28;20630;-75
2023/02/18 04:42:25;;;;;;;65.47;25.88;;;11.50;99.90;;;;;;5072609;28;20485;-76
2023/02/18 04:44:50;;;;;;;54.88;23.48;;;11.50;99.90;;;;;;5079868;28;20031;-76
2023/02/18 04:47:16;;;;;;;53.03;24.55;;;11.60;99.90;;;;;;5090755;28;20024;-77
2023/02/18 04:49:42;;;;;;;48.72;21.17;;;11.50;99.90;;;;;;5076760;28;20052;-76
2023/02/18 04:52:07;;;;;;;51.92;22.55;;;11.50;99.90;;;;;;5071374;28;20031;-76
2023/02/18 04:54:33;;;;;;;33.47;16.92;;;11.60;99.90;;;;;;5081556;28;20105;-76
2023/02/18 04:56:58;;;;;;;46.50;19.60;;;11.50;99.90;;;;;;5078517;28;20058;-76
2023/02/18 04:59:24;;;;;;;36.58;17.15;;;11.50;99.90;;;;;;5081014;28;20439;-77
2023/02/18 05:01:50;;;;;;;33.28;16.60;;;11.50;99.90;;;;;;5074837;28;20082;-76
2023/02/18 05:04:18;;;;;;;37.13;16.13;;;11.50;99.90;;;;;;5074746;28;20305;-76
2023/02/18 05:06:44;;;;;;;33.60;16.65;;;11.40;99.90;;;;;;5086336;28;20024;-76
2023/02/18 05:09:10;;;;;;;34.85;15.85;;;11.40;99.90;;;;;;5085551;28;20829;-76
2023/02/18 05:11:36;;;;;;;32.80;15.65;;;11.50;99.90;;;;;;5084159;28;20052;-76
2023/02/18 05:14:02;;;;;;;29.10;13.48;;;11.50;99.90;;;;;;5085466;28;20083;-76
2023/02/18 05:16:27;;;;;;;31.20;15.15;;;11.50;99.90;;;;;;5079689;28;20068;-76
2023/02/18 05:18:53;;;;;;;34.22;15.10;;;11.50;99.90;;;;;;5073525;28;20125;-75
2023/02/18 05:21:19;;;;;;;30.40;14.80;;;11.50;99.90;;;;;;5072624;28;20024;-75
2023/02/18 05:23:44;;;;;;;28.20;13.98;;;11.50;99.90;;;;;;5072085;28;20487;-75
2023/02/18 05:26:10;;;;;;;30.23;13.48;;;11.50;99.90;;;;;;5071462;28;20021;-75
2023/02/18 05:28:36;;;;;;;33.35;15.23;;;11.50;99.90;;;;;;5070673;28;20071;-75
2023/02/18 05:31:01;;;;;;;25.77;13.60;;;11.50;99.90;;;;;;5086915;28;20025;-76
2023/02/18 05:33:27;;;;;;;21.20;11.77;;;11.40;99.90;;;;;;5090484;28;20028;-76
2023/02/18 05:35:52;;;;;;;27.75;13.90;;;11.40;99.90;;;;;;5084054;28;20387;-76
2023/02/18 05:38:18;;;;;;;22.77;12.57;;;11.40;99.90;;;;;;5083208;28;20027;-76
2023/02/18 05:40:44;;;;;;;22.15;11.25;;;11.30;99.90;;;;;;5079464;28;20027;-76
2023/02/18 05:43:10;;;;;;;19.88;10.32;;;11.30;99.90;;;;;;5071424;28;20029;-75
2023/02/18 05:45:35;;;;;;;18.98;10.45;;;11.30;99.90;;;;;;5078007;28;20048;-75
2023/02/18 05:48:01;;;;;;;16.35;8.63;;;11.30;99.90;;;;;;5081536;28;20033;-75
2023/02/18 05:50:27;;;;;;;13.40;7.72;;;11.30;99.90;;;;;;5084329;28;20043;-75
2023/02/18 05:52:52;;;;;;;19.67;10.27;;;11.30;99.90;;;;;;5080272;28;20685;-76
2023/02/18 05:55:18;;;;;;;15.98;9.00;;;11.30;99.90;;;;;;5072622;28;20040;-76
2023/02/18 05:57:44;;;;;;;15.65;8.57;;;11.30;99.90;;;;;;5079907;28;20153;-76
2023/02/18 06:00:10;;;;;;;12.93;7.78;;;11.30;99.90;;;;;;5083475;28;20027;-75
2023/02/18 06:02:36;;;;;;;14.68;8.75;;;11.30;99.90;;;;;;5080803;28;20054;-76
2023/02/18 06:05:03;;;;;;;12.32;7.00;;;11.20;99.90;;;;;;5079890;28;20055;-76
2023/02/18 06:07:29;;;;;;;15.07;9.00;;;11.30;99.90;;;;;;5080378;28;20666;-74
2023/02/18 06:09:55;;;;;;;13.13;8.13;;;11.30;99.90;;;;;;5071639;28;20202;-75
2023/02/18 06:12:21;;;;;;;11.27;7.60;;;11.20;99.90;;;;;;5076386;28;20044;-76
2023/02/18 06:14:46;;;;;;;14.10;7.68;;;11.30;99.90;;;;;;5088924;28;20036;-76
2023/02/18 06:17:13;;;;;;;14.23;7.50;;;11.20;99.90;;;;;;5076516;28;20032;-76
2023/02/18 06:19:39;;;;;;;13.27;8.35;;;11.20;99.90;;;;;;5080848;28;20021;-77
2023/02/18 06:22:05;;;;;;;16.40;10.38;;;11.20;99.90;;;;;;5077328;28;20709;-76
2023/02/18 06:24:31;;;;;;;13.23;8.60;;;11.30;99.90;;;;;;5087840;28;20028;-75
2023/02/18 06:26:57;;;;;;;19.40;11.63;;;11.30;99.90;;;;;;5082712;28;20467;-76
2023/02/18 06:29:23;;;;;;;15.57;9.82;;;11.20;99.90;;;;;;5085495;28;20568;-76
2023/02/18 06:31:48;;;;;;;17.92;11.13;;;11.20;99.90;;;;;;5083176;28;20127;-77
2023/02/18 06:34:14;;;;;;;15.63;9.75;;;11.20;99.90;;;;;;5077022;28;20033;-77
2023/02/18 06:36:40;;;;;;;16.75;11.57;;;11.20;99.90;;;;;;5074017;28;20093;-75
2023/02/18 06:39:06;;;;;;;19.73;13.13;;;11.30;99.90;;;;;;5086801;28;20023;-76
2023/02/18 06:41:32;;;;;;;20.25;13.05;;;11.20;99.90;;;;;;5088938;28;20379;-75
2023/02/18 06:43:57;;;;;;;19.30;12.43;;;11.20;99.90;;;;;;5076518;28;20085;-76
2023/02/18 06:46:23;;;;;;;20.10;12.63;;;11.20;99.90;;;;;;5070622;28;20491;-77
2023/02/18 06:48:49;;;;;;;22.45;14.27;;;11.20;99.90;;;;;;5080949;28;20070;-75
2023/02/18 06:51:18;;;;;;;18.35;10.25;;;11.20;99.90;;;;;;5077198;28;20027;-76
2023/02/18 06:53:44;;;;;;;16.35;11.32;;;11.30;99.90;;;;;;5085139;28;20036;-76
2023/02/18 06:56:10;;;;;;;20.67;12.52;;;11.20;99.90;;;;;;5091187;28;20030;-75
2023/02/18 06:58:37;;;;;;;17.77;11.90;;;11.20;99.90;;;;;;5089504;28;20012;-76
2023/02/18 07:01:03;;;;;;;16.77;10.50;;;11.20;99.90;;;;;;5085136;28;20054;-75
2023/02/18 07:03:29;;;;;;;18.10;10.98;;;11.20;99.90;;;;;;5097432;28;20077;-76
2023/02/18 07:05:55;;;;;;;15.48;10.23;;;11.20;99.90;;;;;;5079371;28;20111;-76
2023/02/18 07:08:20;;;;;;;20.23;10.40;;;11.20;99.90;;;;;;5085323;28;20031;-76
2023/02/18 07:10:48;;;;;;;14.57;8.90;;;11.20;99.90;;;;;;5086332;28;20028;-77
2023/02/18 07:13:14;;;;;;;9.50;5.45;;;11.20;99.90;;;;;;5088322;28;20396;-77
2023/02/18 07:15:39;;;;;;;9.02;4.85;;;11.30;99.90;;;;;;5080251;28;20053;-75
2023/02/18 07:18:05;;;;;;;14.13;10.25;;;11.40;99.90;;;;;;5073728;28;20036;-77
2023/02/18 07:20:32;;;;;;;17.45;11.85;;;11.40;99.90;;;;;;5084248;28;20569;-75
2023/02/18 07:22:58;;;;;;;17.17;10.57;;;11.30;99.90;;;;;;5077301;28;20119;-77
2023/02/18 07:25:24;;;;;;;15.65;10.85;;;11.30;99.90;;;;;;5076853;28;20107;-76
2023/02/18 07:27:50;;;;;;;18.73;11.98;;;11.20;99.90;;;;;;5085966;28;20032;-77
2023/02/18 07:30:16;;;;;;;23.45;14.07;;;11.20;99.90;;;;;;5081162;28;20031;-77
2023/02/18 07:32:43;;;;;;;21.90;13.07;;;11.20;99.90;;;;;;5082151;28;20025;-77
2023/02/18 07:35:12;;;;;;;20.50;12.00;;;11.20;99.90;;;;;;5078982;28;20040;-77
2023/02/18 07:37:37;;;;;;;22.85;12.73;;;11.20;99.90;;;;;;5079816;28;20538;-78
2023/02/18 07:40:04;;;;;;;16.70;10.43;;;11.20;99.90;;;;;;5079176;28;20149;-78
2023/02/18 07:42:29;;;;;;;14.68;6.50;;;11.20;99.90;;;;;;5080992;28;20031;-79
2023/02/18 07:44:55;;;;;;;17.55;5.50;;;11.30;99.90;;;;;;5077119;28;20029;-78
2023/02/18 07:47:21;;;;;;;13.20;4.35;;;11.40;99.90;;;;;;5078123;28;20025;-78
2023/02/18 07:49:47;;;;;;;10.85;4.95;;;11.50;99.90;;;;;;5081708;28;20020;-78
2023/02/18 07:52:14;;;;;;;19.80;9.45;;;11.60;99.90;;;;;;5090232;28;20024;-77
2023/02/18 07:54:40;;;;;;;15.18;8.93;;;11.60;99.90;;;;;;5083903;28;20036;-76
2023/02/18 07:57:05;;;;;;;19.08;10.07;;;11.50;99.90;;;;;;5086831;28;20077;-78
2023/02/18 07:59:31;;;;;;;18.88;8.23;;;11.40;99.90;;;;;;5085227;28;20089;-77
2023/02/18 08:01:57;;;;;;;22.58;10.18;;;11.30;99.90;;;;;;5084632;28;20020;-77
2023/02/18 08:04:22;;;;;;;12.45;6.75;;;11.30;99.90;;;;;;5071893;28;20036;-76
2023/02/18 08:06:49;;;;;;;19.38;8.90;;;11.20;99.90;;;;;;5076373;28;20099;-76
2023/02/18 08:09:15;;;;;;;21.55;10.15;;;11.20;99.90;;;;;;5078001;28;20073;-75
2023/02/18 08:11:41;;;;;;;21.77;9.18;;;11.10;99.90;;;;;;5078396;28;20038;-77
2023/02/18 08:14:07;;;;;;;26.70;9.40;;;11.10;99.90;;;;;;5080684;28;20111;-78
2023/02/18 08:16:33;;;;;;;29.83;9.07;;;11.10;99.90;;;;;;5077547;28;20108;-76
2023/02/18 08:19:02;;;;;;;20.35;8.18;;;11.10;99.90;;;;;;5077345;28;20028;-76
2023/02/18 08:21:30;;;;;;;28.95;8.15;;;11.00;99.90;;;;;;5082209;28;20091;-77
2023/02/18 08:23:57;;;;;;;28.02;7.45;;;11.00;99.90;;;;;;5069643;28;20039;-78
2023/02/18 08:26:24;;;;;;;16.25;5.63;;;11.10;99.90;;;;;;5082136;28;20040;-77
2023/02/18 08:28:50;;;;;;;24.50;7.05;;;11.00;99.90;;;;;;5077856;28;20021;-78
2023/02/18 08:31:25;;;;;;;15.98;5.93;;;11.00;99.90;;;;;;5087301;28;20028;-77
2023/02/18 08:33:53;;;;;;;18.83;6.05;;;11.00;99.90;;;;;;5071325;28;20032;-78
2023/02/18 08:36:19;;;;;;;24.00;5.65;;;11.00;99.90;;;;;;5076479;28;20028;-76
2023/02/18 08:38:45;;;;;;;28.27;6.45;;;11.10;99.90;;;;;;5081558;28;20025;-76
2023/02/18 08:41:13;;;;;;;19.38;7.07;;;11.00;99.90;;;;;;5081188;28;20423;-78
2023/02/18 08:43:39;;;;;;;13.68;6.22;;;11.00;99.90;;;;;;5075493;28;20056;-78
2023/02/18 08:46:05;;;;;;;19.88;5.53;;;10.90;99.90;;;;;;5081531;28;20048;-78
2023/02/18 08:48:31;;;;;;;19.27;5.07;;;11.00;99.90;;;;;;5073939;28;20024;-77
2023/02/18 08:50:56;;;;;;;19.35;5.85;;;11.00;99.90;;;;;;5072705;28;20054;-77
2023/02/18 08:53:22;;;;;;;27.92;6.72;;;11.00;99.90;;;;;;5088346;28;20567;-77
2023/02/18 08:55:48;;;;;;;27.55;4.72;;;10.90;99.90;;;;;;5078028;28;20067;-78
2023/02/18 08:58:14;;;;;;;23.00;5.93;;;11.00;99.90;;;;;;5088944;28;20051;-78
2023/02/18 09:00:41;;;;;;;24.15;5.05;;;11.00;99.90;;;;;;5077069;28;20020;-78
2023/02/18 09:03:07;;;;;;;18.35;4.30;;;11.00;99.90;;;;;;5083975;28;20042;-77
2023/02/18 09:05:32;;;;;;;16.80;3.53;;;10.90;99.90;;;;;;5077202;28;20028;-76
2023/02/18 09:07:59;;;;;;;21.38;5.25;;;10.80;99.90;;;;;;5077229;28;20029;-76
2023/02/18 09:10:24;;;;;;;20.25;4.75;;;10.80;99.90;;;;;;5074843;28;20110;-76
2023/02/18 09:12:50;;;;;;;23.30;5.60;;;10.80;99.90;;;;;;5081892;28;20100;-77
2023/02/18 09:15:16;;;;;;;19.08;4.07;;;10.80;99.90;;;;;;5076024;28;20074;-77
2023/02/18 09:17:42;;;;;;;15.18;3.63;;;10.70;99.90;;;;;;5071492;28;20378;-78
2023/02/18 09:20:08;;;;;;;16.67;3.10;;;10.70;99.90;;;;;;5075674;28;20082;-77
2023/02/18 09:22:34;;;;;;;13.23;3.78;;;10.70;99.90;;;;;;5074874;28;20039;-78
2023/02/18 09:24:59;;;;;;;22.30;4.65;;;10.70;99.90;;;;;;5085726;28;20021;-75
2023/02/18 09:27:25;;;;;;;15.63;3.90;;;10.60;99.90;;;;;;5086479;28;20028;-77
2023/02/18 09:29:51;;;;;;;19.52;4.15;;;10.50;99.90;;;;;;5087468;28;20028;-77
2023/02/18 09:32:17;;;;;;;14.38;4.55;;;10.50;99.90;;;;;;5081702;28;20020;-77
2023/02/18 09:34:44;;;;;;;15.38;3.45;;;10.60;99.90;;;;;;5088978;28;20028;-79
2023/02/18 09:37:10;;;;;;;20.55;6.95;;;10.60;99.90;;;;;;5074508;28;20132;-77
2023/02/18 09:39:35;;;;;;;20.08;5.78;;;10.50;99.90;;;;;;5077438;28;20467;-76
2023/02/18 09:42:04;;;;;;;19.30;6.55;;;10.40;99.90;;;;;;5074669;28;20028;-78
2023/02/18 09:44:38;;;;;;;16.17;5.55;;;10.50;99.90;;;;;;5080859;28;20046;-77
2023/02/18 09:47:40;;;;;;;18.85;6.10;;;10.50;99.90;;;;;;5079621;28;20073;-77
2023/02/18 09:50:28;;;;;;;18.70;5.43;;;10.60;99.90;;;;;;5061936;28;20560;-76
2023/02/18 09:52:54;;;;;;;19.77;5.13;;;10.50;99.90;;;;;;5082286;28;20047;-77
2023/02/18 09:55:26;;;;;;;25.67;6.32;;;10.50;99.90;;;;;;5073730;28;20135;-78
2023/02/18 09:58:02;;;;;;;19.73;5.85;;;10.50;99.90;;;;;;5082188;28;20020;-77
2023/02/18 10:00:36;;;;;;;15.43;4.65;;;10.60;99.90;;;;;;5070335;28;20023;-77
2023/02/18 10:03:15;;;;;;;14.18;4.47;;;10.60;99.90;;;;;;5075843;28;20035;-77
2023/02/18 10:05:51;;;;;;;18.67;5.63;;;10.60;99.90;;;;;;5079204;28;20024;-79
2023/02/18 10:08:41;;;;;;;21.20;5.05;;;10.60;99.90;;;;;;5072041;28;20495;-78
2023/02/18 10:11:15;;;;;;;;;;;10.70;99.90;;;;;;5069896;28;20041;-77
2023/02/18 10:13:42;;;;;;;15.48;4.43;;;10.60;99.90;;;;;;5083668;28;19904;-78
2023/02/18 10:16:15;;;;;;;16.60;4.85;;;10.60;99.90;;;;;;5082594;28;20062;-75
2023/02/18 10:18:48;;;;;;;15.50;4.28;;;10.80;99.90;;;;;;5072053;28;20032;-79
2023/02/18 10:21:30;;;;;;;20.77;4.40;;;10.70;99.90;;;;;;5075575;28;20017;-77
2023/02/18 10:24:05;;;;;;;21.67;4.18;;;10.70;99.90;;;;;;5077326;28;20693;-77
2023/02/18 10:26:34;;;;;;;21.02;5.18;;;10.70;99.90;;;;;;5082800;28;20020;-76
2023/02/18 10:29:08;;;;;;;17.27;4.43;;;10.70;99.90;;;;;;5080105;28;20104;-77
2023/02/18 10:31:37;;;;;;;16.63;5.45;;;10.70;99.90;;;;;;5083368;28;20099;-78
2023/02/18 10:34:23;;;;;;;18.83;4.72;;;10.80;99.90;;;;;;5085888;28;20119;-78
2023/02/18 10:37:06;;;;;;;21.92;5.50;;;10.70;99.90;;;;;;5083567;28;20040;-78
2023/02/18 10:39:41;;;;;;;20.30;5.13;;;10.70;99.90;;;;;;5083030;28;20028;-75
2023/02/18 10:42:28;;;;;;;16.42;4.70;;;10.70;99.90;;;;;;5083359;28;20749;-76
2023/02/18 10:45:19;;;;;;;22.30;5.20;;;10.70;99.90;;;;;;5081137;28;20032;-76
2023/02/18 10:48:10;;;;;;;21.35;5.38;;;10.70;99.90;;;;;;5083440;28;20028;-78
2023/02/18 10:50:44;;;;;;;25.45;4.95;;;10.80;99.90;;;;;;5082357;28;20016;-76
2023/02/18 10:53:36;;;;;;;19.20;5.88;;;10.80;99.90;;;;;;5080974;28;20474;-77
2023/02/18 10:56:04;;;;;;;29.27;7.22;;;10.80;99.90;;;;;;5082204;28;20036;-78
2023/02/18 10:59:10;;;;;;;18.67;5.18;;;10.80;99.90;;;;;;5075324;28;20028;-77
2023/02/18 11:01:36;;;;;;;23.88;5.18;;;10.80;99.90;;;;;;5057045;28;20029;-76
2023/02/18 11:04:14;;;;;;;21.52;6.10;;;10.70;99.90;;;;;;5084634;28;20062;-76
2023/02/18 11:06:45;;;;;;;13.43;4.65;;;10.80;99.90;;;;;;5075696;28;20040;-77
2023/02/18 11:09:40;;;;;;;24.00;5.88;;;10.80;99.90;;;;;;5081897;28;20032;-77
2023/02/18 11:12:25;;;;;;;22.25;5.93;;;10.80;99.90;;;;;;5037372;28;20036;-78
2023/02/18 11:15:09;;;;;;;19.58;5.70;;;10.80;99.90;;;;;;5077286;28;20048;-77
2023/02/18 11:17:36;;;;;;;15.10;5.57;;;10.90;99.90;;;;;;5074034;28;20032;-77
2023/02/18 11:20:29;;;;;;;19.35;6.82;;;10.90;99.90;;;;;;5091802;28;20119;-77
2023/02/18 11:23:13;;;;;;;21.02;4.97;;;11.00;99.90;;;;;;5074767;28;20090;-78
2023/02/18 11:25:41;;;;;;;21.88;6.75;;;11.00;99.90;;;;;;5072517;28;20021;-77
2023/02/18 11:28:28;;;;;;;20.55;4.90;;;11.10;99.90;;;;;;5086584;28;20075;-76
2023/02/18 11:30:59;;;;;;;15.75;5.10;;;11.20;99.90;;;;;;5090964;28;20078;-77
2023/02/18 11:33:38;;;;;;;23.48;5.65;;;11.20;99.90;;;;;;5088188;28;20016;-78
2023/02/18 11:36:16;;;;;;;25.85;6.43;;;11.20;99.90;;;;;;5096760;28;20107;-76
2023/02/18 11:39:13;;;;;;;27.48;6.70;;;11.20;99.90;;;;;;5089642;28;20073;-77
2023/02/18 11:41:45;;;;;;;17.63;4.78;;;11.20;99.90;;;;;;5077613;28;20052;-78
2023/02/18 11:44:27;;;;;;;11.77;3.60;;;11.30;99.90;;;;;;5082243;28;20107;-77
2023/02/18 11:47:19;;;;;;;9.13;2.95;;;11.40;99.90;;;;;;5086113;28;20595;-78
2023/02/18 11:50:13;;;;;;;24.55;6.95;;;11.50;99.90;;;;;;5085969;28;20103;-77
2023/02/18 11:52:45;;;;;;;30.27;9.43;;;11.60;99.90;;;;;;5084485;28;20475;-77
2023/02/18 11:55:16;;;;;;;22.40;7.53;;;11.50;99.90;;;;;;5071320;28;20033;-76
2023/02/18 11:57:47;;;;;;;27.90;8.07;;;11.50;99.90;;;;;;5079997;28;20024;-77
2023/02/18 12:00:23;;;;;;;17.75;7.32;;;11.50;99.90;;;;;;5082145;28;20026;-76
2023/02/18 12:02:53;;;;;;;24.15;8.10;;;11.60;99.90;;;;;;5083161;28;20874;-77
2023/02/18 12:05:24;;;;;;;20.48;7.53;;;11.50;99.90;;;;;;5073883;28;20112;-77
2023/02/18 12:08:16;;;;;;;30.38;9.00;;;11.50;99.90;;;;;;5085766;28;20035;-76
2023/02/18 12:10:52;;;;;;;22.67;8.00;;;11.50;99.90;;;;;;5071106;28;20064;-77
2023/02/18 12:13:38;;;;;;;22.75;7.55;;;11.50;99.90;;;;;;5074576;28;20036;-77
2023/02/18 12:16:18;;;;;;;12.93;7.10;;;11.60;99.90;;;;;;5079701;28;20053;-75
2023/02/18 12:19:03;;;;;;;26.30;9.10;;;11.60;99.90;;;;;;5079720;28;20452;-76
2023/02/18 12:21:48;;;;;;;19.02;7.15;;;11.60;99.90;;;;;;5089689;28;20178;-76
2023/02/18 12:24:21;;;;;;;20.92;7.97;;;11.60;99.90;;;;;;5080597;28;20048;-77
2023/02/18 12:26:47;;;;;;;28.05;11.05;;;11.60;99.90;;;;;;5074733;28;20042;-77
2023/02/18 12:29:24;;;;;;;25.00;8.90;;;11.50;99.90;;;;;;5081086;28;20028;-76
2023/02/18 12:32:14;;;;;;;24.95;9.15;;;11.60;99.90;;;;;;5074932;28;20095;-76
2023/02/18 12:34:39;;;;;;;27.40;9.32;;;11.70;99.90;;;;;;5085060;28;20040;-76
2023/02/18 12:37:26;;;;;;;19.45;8.85;;;11.60;99.90;;;;;;5089601;28;20069;-75
2023/02/18 12:40:02;;;;;;;24.50;10.15;;;11.60;99.90;;;;;;5084215;28;20016;-77
2023/02/18 12:43:03;;;;;;;30.95;9.90;;;11.60;99.90;;;;;;5072455;28;20039;-76
2023/02/18 12:45:51;;;;;;;28.23;9.60;;;11.60;99.90;;;;;;5039795;28;20044;-76
2023/02/18 12:48:48;;;;;;;26.85;8.65;;;11.70;99.90;;;;;;5086722;28;20024;-76